sensor_id;sensor_type;location;lat;lon;timestamp;P1;durP1;ratioP1;P2;durP2;ratioP2
12906;SDS011;6521;50.498;8.474;2022-12-08T00:01:41;19.33;;;9.33;;
12906;SDS011;6521;50.498;8.474;2022-12-08T00:04:12;14.80;;;8.80;;
12906;SDS011;6521;50.498;8.474;2022-12-08T00:06:43;16.57;;;8.97;;
12906;SDS011;6521;50.498;8.474;2022-12-08T00:09:34;13.30;;;8.90;;
12906;SDS011;6521;50.498;8.474;2022-12-08T00:12:08;15.23;;;8.97;;
12906;SDS011;6521;50.498;8.474;2022-12-08T00:14:44;18.63;;;9.73;;
12906;SDS011;6521;50.498;8.474;2022-12-08T00:17:16;14.63;;;9.17;;
12906;SDS011;6521;50.498;8.474;2022-12-08T00:19:48;18.20;;;9.33;;
12906;SDS011;6521;50.498;8.474;2022-12-08T00:22:19;15.93;;;8.73;;
12906;SDS011;6521;50.498;8.474;2022-12-08T00:24:50;16.90;;;9.13;;
12906;SDS011;6521;50.498;8.474;2022-12-08T00:27:21;15.23;;;9.93;;
12906;SDS011;6521;50.498;8.474;2022-12-08T00:29:52;21.27;;;9.87;;
12906;SDS011;6521;50.498;8.474;2022-12-08T00:32:23;15.10;;;9.80;;
12906;SDS011;6521;50.498;8.474;2022-12-08T00:34:53;15.53;;;9.80;;
12906;SDS011;6521;50.498;8.474;2022-12-08T00:37:24;12.93;;;9.17;;
12906;SDS011;6521;50.498;8.474;2022-12-08T00:39:55;22.43;;;9.53;;
12906;SDS011;6521;50.498;8.474;2022-12-08T00:42:26;19.87;;;10.13;;
12906;SDS011;6521;50.498;8.474;2022-12-08T00:44:56;15.73;;;10.17;;
12906;SDS011;6521;50.498;8.474;2022-12-08T00:47:27;17.50;;;10.87;;
12906;SDS011;6521;50.498;8.474;2022-12-08T00:49:58;23.60;;;9.80;;
12906;SDS011;6521;50.498;8.474;2022-12-08T00:52:29;23.27;;;10.50;;
12906;SDS011;6521;50.498;8.474;2022-12-08T00:55:00;17.83;;;9.57;;
12906;SDS011;6521;50.498;8.474;2022-12-08T00:57:31;14.17;;;9.67;;
12906;SDS011;6521;50.498;8.474;2022-12-08T01:00:02;15.07;;;10.60;;
12906;SDS011;6521;50.498;8.474;2022-12-08T01:02:33;21.93;;;10.37;;
12906;SDS011;6521;50.498;8.474;2022-12-08T01:05:04;16.10;;;10.23;;
12906;SDS011;6521;50.498;8.474;2022-12-08T01:07:36;17.00;;;10.10;;
12906;SDS011;6521;50.498;8.474;2022-12-08T01:10:07;16.73;;;9.67;;
12906;SDS011;6521;50.498;8.474;2022-12-08T01:12:38;17.17;;;10.30;;
12906;SDS011;6521;50.498;8.474;2022-12-08T01:15:09;15.10;;;9.73;;
12906;SDS011;6521;50.498;8.474;2022-12-08T01:17:40;16.03;;;9.63;;
12906;SDS011;6521;50.498;8.474;2022-12-08T01:20:10;15.43;;;9.57;;
12906;SDS011;6521;50.498;8.474;2022-12-08T01:22:41;16.37;;;10.90;;
12906;SDS011;6521;50.498;8.474;2022-12-08T01:25:12;17.80;;;10.40;;
12906;SDS011;6521;50.498;8.474;2022-12-08T01:27:43;17.97;;;10.33;;
12906;SDS011;6521;50.498;8.474;2022-12-08T01:30:14;17.07;;;11.23;;
12906;SDS011;6521;50.498;8.474;2022-12-08T01:32:45;18.87;;;10.90;;
12906;SDS011;6521;50.498;8.474;2022-12-08T01:35:16;17.53;;;10.60;;
12906;SDS011;6521;50.498;8.474;2022-12-08T01:37:49;17.47;;;11.50;;
12906;SDS011;6521;50.498;8.474;2022-12-08T01:40:20;20.83;;;11.20;;
12906;SDS011;6521;50.498;8.474;2022-12-08T01:42:51;15.67;;;10.30;;
12906;SDS011;6521;50.498;8.474;2022-12-08T01:45:27;15.53;;;10.10;;
12906;SDS011;6521;50.498;8.474;2022-12-08T01:47:59;14.97;;;10.50;;
12906;SDS011;6521;50.498;8.474;2022-12-08T01:50:35;16.40;;;10.40;;
12906;SDS011;6521;50.498;8.474;2022-12-08T01:53:15;15.10;;;9.83;;
12906;SDS011;6521;50.498;8.474;2022-12-08T01:55:50;16.43;;;10.17;;
12906;SDS011;6521;50.498;8.474;2022-12-08T01:58:27;16.57;;;10.30;;
12906;SDS011;6521;50.498;8.474;2022-12-08T02:01:01;19.67;;;10.60;;
12906;SDS011;6521;50.498;8.474;2022-12-08T02:03:46;20.20;;;10.43;;
12906;SDS011;6521;50.498;8.474;2022-12-08T02:06:20;15.70;;;10.07;;
12906;SDS011;6521;50.498;8.474;2022-12-08T02:08:51;15.93;;;9.97;;
12906;SDS011;6521;50.498;8.474;2022-12-08T02:11:24;15.37;;;9.73;;
12906;SDS011;6521;50.498;8.474;2022-12-08T02:13:55;16.87;;;9.47;;
12906;SDS011;6521;50.498;8.474;2022-12-08T02:16:32;15.77;;;8.90;;
12906;SDS011;6521;50.498;8.474;2022-12-08T02:30:35;12.70;;;8.70;;
12906;SDS011;6521;50.498;8.474;2022-12-08T02:36:14;15.70;;;9.30;;
12906;SDS011;6521;50.498;8.474;2022-12-08T02:42:04;13.40;;;8.63;;
12906;SDS011;6521;50.498;8.474;2022-12-08T02:45:08;15.60;;;9.17;;
12906;SDS011;6521;50.498;8.474;2022-12-08T02:47:46;13.73;;;7.80;;
12906;SDS011;6521;50.498;8.474;2022-12-08T02:50:17;13.93;;;8.93;;
12906;SDS011;6521;50.498;8.474;2022-12-08T02:52:48;14.23;;;8.87;;
12906;SDS011;6521;50.498;8.474;2022-12-08T02:58:43;18.00;;;8.97;;
12906;SDS011;6521;50.498;8.474;2022-12-08T03:01:43;14.67;;;9.07;;
12906;SDS011;6521;50.498;8.474;2022-12-08T03:07:44;12.80;;;7.70;;
12906;SDS011;6521;50.498;8.474;2022-12-08T03:10:33;10.73;;;7.50;;
12906;SDS011;6521;50.498;8.474;2022-12-08T03:13:13;10.87;;;8.20;;
12906;SDS011;6521;50.498;8.474;2022-12-08T03:15:49;14.40;;;8.07;;
12906;SDS011;6521;50.498;8.474;2022-12-08T03:18:22;11.50;;;8.30;;
12906;SDS011;6521;50.498;8.474;2022-12-08T03:20:58;19.20;;;9.40;;
12906;SDS011;6521;50.498;8.474;2022-12-08T03:23:29;13.53;;;8.30;;
12906;SDS011;6521;50.498;8.474;2022-12-08T03:26:03;12.43;;;8.27;;
12906;SDS011;6521;50.498;8.474;2022-12-08T03:28:37;13.43;;;8.43;;
12906;SDS011;6521;50.498;8.474;2022-12-08T03:31:09;15.20;;;8.47;;
12906;SDS011;6521;50.498;8.474;2022-12-08T03:33:44;11.87;;;7.87;;
12906;SDS011;6521;50.498;8.474;2022-12-08T03:36:21;12.87;;;8.63;;
12906;SDS011;6521;50.498;8.474;2022-12-08T03:38:52;16.23;;;8.00;;
12906;SDS011;6521;50.498;8.474;2022-12-08T03:41:23;12.00;;;7.77;;
12906;SDS011;6521;50.498;8.474;2022-12-08T03:43:55;14.20;;;9.13;;
12906;SDS011;6521;50.498;8.474;2022-12-08T03:46:30;14.60;;;8.40;;
12906;SDS011;6521;50.498;8.474;2022-12-08T03:49:01;13.83;;;8.97;;
12906;SDS011;6521;50.498;8.474;2022-12-08T03:51:32;23.60;;;8.47;;
12906;SDS011;6521;50.498;8.474;2022-12-08T03:54:03;11.93;;;8.67;;
12906;SDS011;6521;50.498;8.474;2022-12-08T03:56:35;11.50;;;8.67;;
12906;SDS011;6521;50.498;8.474;2022-12-08T03:59:07;13.50;;;8.17;;
12906;SDS011;6521;50.498;8.474;2022-12-08T04:01:39;10.97;;;7.67;;
12906;SDS011;6521;50.498;8.474;2022-12-08T04:04:10;13.00;;;8.07;;
12906;SDS011;6521;50.498;8.474;2022-12-08T04:06:41;12.27;;;8.63;;
12906;SDS011;6521;50.498;8.474;2022-12-08T04:09:13;15.73;;;9.07;;
12906;SDS011;6521;50.498;8.474;2022-12-08T04:11:44;17.60;;;8.60;;
12906;SDS011;6521;50.498;8.474;2022-12-08T04:14:15;12.37;;;8.40;;
12906;SDS011;6521;50.498;8.474;2022-12-08T04:16:45;14.97;;;9.23;;
12906;SDS011;6521;50.498;8.474;2022-12-08T04:19:16;14.60;;;9.00;;
12906;SDS011;6521;50.498;8.474;2022-12-08T04:21:47;14.87;;;9.87;;
12906;SDS011;6521;50.498;8.474;2022-12-08T04:24:18;12.83;;;9.33;;
12906;SDS011;6521;50.498;8.474;2022-12-08T04:26:49;15.60;;;9.60;;
12906;SDS011;6521;50.498;8.474;2022-12-08T04:29:20;14.57;;;9.30;;
12906;SDS011;6521;50.498;8.474;2022-12-08T04:31:51;17.17;;;9.70;;
12906;SDS011;6521;50.498;8.474;2022-12-08T04:34:22;15.73;;;9.30;;
12906;SDS011;6521;50.498;8.474;2022-12-08T04:36:52;12.57;;;9.17;;
12906;SDS011;6521;50.498;8.474;2022-12-08T04:39:23;15.33;;;9.23;;
12906;SDS011;6521;50.498;8.474;2022-12-08T04:41:54;11.90;;;8.03;;
12906;SDS011;6521;50.498;8.474;2022-12-08T04:44:24;15.27;;;9.30;;
12906;SDS011;6521;50.498;8.474;2022-12-08T04:46:55;18.00;;;9.20;;
12906;SDS011;6521;50.498;8.474;2022-12-08T04:49:26;15.63;;;8.90;;
12906;SDS011;6521;50.498;8.474;2022-12-08T04:51:57;12.80;;;8.57;;
12906;SDS011;6521;50.498;8.474;2022-12-08T04:54:27;14.40;;;8.07;;
12906;SDS011;6521;50.498;8.474;2022-12-08T04:56:58;13.07;;;8.43;;
12906;SDS011;6521;50.498;8.474;2022-12-08T04:59:29;11.70;;;7.43;;
12906;SDS011;6521;50.498;8.474;2022-12-08T05:02:00;12.83;;;7.93;;
12906;SDS011;6521;50.498;8.474;2022-12-08T05:04:30;15.97;;;9.50;;
12906;SDS011;6521;50.498;8.474;2022-12-08T05:07:01;14.07;;;8.47;;
12906;SDS011;6521;50.498;8.474;2022-12-08T05:09:32;14.10;;;8.20;;
12906;SDS011;6521;50.498;8.474;2022-12-08T05:12:03;13.30;;;8.90;;
12906;SDS011;6521;50.498;8.474;2022-12-08T05:14:34;18.83;;;8.07;;
12906;SDS011;6521;50.498;8.474;2022-12-08T05:17:05;11.67;;;7.33;;
12906;SDS011;6521;50.498;8.474;2022-12-08T05:19:36;10.07;;;7.90;;
12906;SDS011;6521;50.498;8.474;2022-12-08T05:22:07;15.17;;;7.60;;
12906;SDS011;6521;50.498;8.474;2022-12-08T05:24:37;14.33;;;7.77;;
12906;SDS011;6521;50.498;8.474;2022-12-08T05:27:09;10.37;;;7.23;;
12906;SDS011;6521;50.498;8.474;2022-12-08T05:29:39;11.53;;;8.00;;
12906;SDS011;6521;50.498;8.474;2022-12-08T05:32:12;13.07;;;7.13;;
12906;SDS011;6521;50.498;8.474;2022-12-08T05:34:42;10.70;;;7.63;;
12906;SDS011;6521;50.498;8.474;2022-12-08T05:37:13;12.77;;;7.93;;
12906;SDS011;6521;50.498;8.474;2022-12-08T05:39:44;11.90;;;7.33;;
12906;SDS011;6521;50.498;8.474;2022-12-08T05:42:16;9.77;;;6.80;;
12906;SDS011;6521;50.498;8.474;2022-12-08T05:44:46;9.83;;;6.73;;
12906;SDS011;6521;50.498;8.474;2022-12-08T05:47:17;12.27;;;7.07;;
12906;SDS011;6521;50.498;8.474;2022-12-08T05:49:48;8.83;;;6.80;;
12906;SDS011;6521;50.498;8.474;2022-12-08T05:52:19;11.83;;;7.20;;
12906;SDS011;6521;50.498;8.474;2022-12-08T05:54:50;9.13;;;6.80;;
12906;SDS011;6521;50.498;8.474;2022-12-08T05:57:20;9.03;;;6.90;;
12906;SDS011;6521;50.498;8.474;2022-12-08T05:59:51;9.40;;;7.23;;
12906;SDS011;6521;50.498;8.474;2022-12-08T06:02:22;12.10;;;7.30;;
12906;SDS011;6521;50.498;8.474;2022-12-08T06:04:53;10.00;;;7.17;;
12906;SDS011;6521;50.498;8.474;2022-12-08T06:07:23;11.47;;;7.43;;
12906;SDS011;6521;50.498;8.474;2022-12-08T06:09:54;11.43;;;7.20;;
12906;SDS011;6521;50.498;8.474;2022-12-08T06:12:25;14.33;;;7.37;;
12906;SDS011;6521;50.498;8.474;2022-12-08T06:14:56;9.73;;;7.30;;
12906;SDS011;6521;50.498;8.474;2022-12-08T06:17:26;9.67;;;6.90;;
12906;SDS011;6521;50.498;8.474;2022-12-08T06:19:58;10.27;;;7.07;;
12906;SDS011;6521;50.498;8.474;2022-12-08T06:22:28;12.00;;;7.97;;
12906;SDS011;6521;50.498;8.474;2022-12-08T06:24:59;11.77;;;7.17;;
12906;SDS011;6521;50.498;8.474;2022-12-08T06:27:31;9.47;;;7.33;;
12906;SDS011;6521;50.498;8.474;2022-12-08T06:30:03;11.10;;;6.67;;
12906;SDS011;6521;50.498;8.474;2022-12-08T06:32:35;7.73;;;6.27;;
12906;SDS011;6521;50.498;8.474;2022-12-08T06:35:05;10.07;;;6.80;;
12906;SDS011;6521;50.498;8.474;2022-12-08T06:37:37;16.23;;;6.97;;
12906;SDS011;6521;50.498;8.474;2022-12-08T06:40:08;10.77;;;6.90;;
12906;SDS011;6521;50.498;8.474;2022-12-08T06:42:39;12.63;;;7.00;;
12906;SDS011;6521;50.498;8.474;2022-12-08T06:45:16;8.07;;;6.50;;
12906;SDS011;6521;50.498;8.474;2022-12-08T06:47:47;10.13;;;6.03;;
12906;SDS011;6521;50.498;8.474;2022-12-08T06:50:18;9.53;;;6.10;;
12906;SDS011;6521;50.498;8.474;2022-12-08T06:52:49;12.27;;;7.50;;
12906;SDS011;6521;50.498;8.474;2022-12-08T06:55:20;8.43;;;7.07;;
12906;SDS011;6521;50.498;8.474;2022-12-08T06:57:51;8.97;;;6.13;;
12906;SDS011;6521;50.498;8.474;2022-12-08T07:00:22;10.73;;;7.30;;
12906;SDS011;6521;50.498;8.474;2022-12-08T07:02:53;15.60;;;6.97;;
12906;SDS011;6521;50.498;8.474;2022-12-08T07:05:24;11.27;;;6.63;;
12906;SDS011;6521;50.498;8.474;2022-12-08T07:07:55;12.67;;;6.67;;
12906;SDS011;6521;50.498;8.474;2022-12-08T07:10:25;9.23;;;6.57;;
12906;SDS011;6521;50.498;8.474;2022-12-08T07:12:56;9.93;;;6.47;;
12906;SDS011;6521;50.498;8.474;2022-12-08T07:15:27;9.33;;;6.57;;
12906;SDS011;6521;50.498;8.474;2022-12-08T07:17:58;8.67;;;6.70;;
12906;SDS011;6521;50.498;8.474;2022-12-08T07:20:29;16.27;;;7.63;;
12906;SDS011;6521;50.498;8.474;2022-12-08T07:23:00;12.67;;;8.13;;
12906;SDS011;6521;50.498;8.474;2022-12-08T07:25:31;12.63;;;6.33;;
12906;SDS011;6521;50.498;8.474;2022-12-08T07:28:06;9.57;;;6.87;;
12906;SDS011;6521;50.498;8.474;2022-12-08T07:30:38;10.70;;;7.07;;
12906;SDS011;6521;50.498;8.474;2022-12-08T07:33:09;8.80;;;6.53;;
12906;SDS011;6521;50.498;8.474;2022-12-08T07:35:39;8.90;;;7.13;;
12906;SDS011;6521;50.498;8.474;2022-12-08T07:38:10;11.57;;;6.23;;
12906;SDS011;6521;50.498;8.474;2022-12-08T07:40:41;8.80;;;6.20;;
12906;SDS011;6521;50.498;8.474;2022-12-08T07:43:14;10.23;;;6.63;;
12906;SDS011;6521;50.498;8.474;2022-12-08T07:45:47;10.90;;;7.07;;
12906;SDS011;6521;50.498;8.474;2022-12-08T07:48:18;11.63;;;7.17;;
12906;SDS011;6521;50.498;8.474;2022-12-08T07:50:49;10.40;;;6.83;;
12906;SDS011;6521;50.498;8.474;2022-12-08T07:53:20;14.40;;;6.90;;
12906;SDS011;6521;50.498;8.474;2022-12-08T07:55:50;12.27;;;6.67;;
12906;SDS011;6521;50.498;8.474;2022-12-08T07:58:25;16.73;;;7.50;;
12906;SDS011;6521;50.498;8.474;2022-12-08T08:00:57;11.83;;;6.90;;
12906;SDS011;6521;50.498;8.474;2022-12-08T08:03:28;12.50;;;7.10;;
12906;SDS011;6521;50.498;8.474;2022-12-08T08:06:02;11.20;;;7.43;;
12906;SDS011;6521;50.498;8.474;2022-12-08T08:08:34;10.17;;;7.20;;
12906;SDS011;6521;50.498;8.474;2022-12-08T08:11:05;10.57;;;6.73;;
12906;SDS011;6521;50.498;8.474;2022-12-08T08:13:36;13.20;;;7.37;;
12906;SDS011;6521;50.498;8.474;2022-12-08T08:16:08;8.87;;;7.03;;
12906;SDS011;6521;50.498;8.474;2022-12-08T08:18:40;10.90;;;7.07;;
12906;SDS011;6521;50.498;8.474;2022-12-08T08:21:14;13.87;;;6.77;;
12906;SDS011;6521;50.498;8.474;2022-12-08T08:23:45;15.87;;;7.63;;
12906;SDS011;6521;50.498;8.474;2022-12-08T08:26:19;11.83;;;7.27;;
12906;SDS011;6521;50.498;8.474;2022-12-08T08:28:50;10.37;;;7.13;;
12906;SDS011;6521;50.498;8.474;2022-12-08T08:31:26;11.20;;;6.87;;
12906;SDS011;6521;50.498;8.474;2022-12-08T08:33:57;8.77;;;6.97;;
12906;SDS011;6521;50.498;8.474;2022-12-08T08:36:29;13.57;;;7.40;;
12906;SDS011;6521;50.498;8.474;2022-12-08T08:39:00;14.33;;;7.60;;
12906;SDS011;6521;50.498;8.474;2022-12-08T08:41:32;12.87;;;7.50;;
12906;SDS011;6521;50.498;8.474;2022-12-08T08:44:05;10.20;;;6.67;;
12906;SDS011;6521;50.498;8.474;2022-12-08T08:46:35;9.80;;;6.47;;
12906;SDS011;6521;50.498;8.474;2022-12-08T08:49:06;8.83;;;6.57;;
12906;SDS011;6521;50.498;8.474;2022-12-08T08:51:37;13.47;;;6.73;;
12906;SDS011;6521;50.498;8.474;2022-12-08T08:54:08;10.23;;;7.00;;
12906;SDS011;6521;50.498;8.474;2022-12-08T08:56:39;12.23;;;6.67;;
12906;SDS011;6521;50.498;8.474;2022-12-08T08:59:10;10.53;;;7.40;;
12906;SDS011;6521;50.498;8.474;2022-12-08T09:01:41;10.80;;;6.83;;
12906;SDS011;6521;50.498;8.474;2022-12-08T09:04:13;11.97;;;7.23;;
12906;SDS011;6521;50.498;8.474;2022-12-08T09:06:44;12.77;;;6.83;;
12906;SDS011;6521;50.498;8.474;2022-12-08T09:09:15;8.97;;;6.53;;
12906;SDS011;6521;50.498;8.474;2022-12-08T09:11:46;9.50;;;6.13;;
12906;SDS011;6521;50.498;8.474;2022-12-08T09:14:17;16.00;;;7.17;;
12906;SDS011;6521;50.498;8.474;2022-12-08T09:16:50;9.47;;;6.73;;
12906;SDS011;6521;50.498;8.474;2022-12-08T09:19:21;15.73;;;7.13;;
12906;SDS011;6521;50.498;8.474;2022-12-08T09:21:52;12.73;;;7.13;;
12906;SDS011;6521;50.498;8.474;2022-12-08T09:24:23;15.03;;;7.20;;
12906;SDS011;6521;50.498;8.474;2022-12-08T09:26:56;11.83;;;6.80;;
12906;SDS011;6521;50.498;8.474;2022-12-08T09:29:27;10.73;;;7.03;;
12906;SDS011;6521;50.498;8.474;2022-12-08T09:31:57;10.43;;;6.17;;
12906;SDS011;6521;50.498;8.474;2022-12-08T09:34:28;9.13;;;6.67;;
12906;SDS011;6521;50.498;8.474;2022-12-08T09:37:00;11.27;;;6.77;;
12906;SDS011;6521;50.498;8.474;2022-12-08T09:39:32;9.97;;;6.13;;
12906;SDS011;6521;50.498;8.474;2022-12-08T09:42:04;11.17;;;7.03;;
12906;SDS011;6521;50.498;8.474;2022-12-08T09:44:42;13.23;;;5.90;;
12906;SDS011;6521;50.498;8.474;2022-12-08T09:48:04;10.97;;;6.13;;
12906;SDS011;6521;50.498;8.474;2022-12-08T09:53:02;10.40;;;5.70;;
12906;SDS011;6521;50.498;8.474;2022-12-08T10:01:28;11.47;;;6.77;;
12906;SDS011;6521;50.498;8.474;2022-12-08T10:04:02;8.57;;;6.77;;
12906;SDS011;6521;50.498;8.474;2022-12-08T10:06:41;16.57;;;7.27;;
12906;SDS011;6521;50.498;8.474;2022-12-08T10:15:02;9.47;;;6.20;;
12906;SDS011;6521;50.498;8.474;2022-12-08T10:17:40;8.07;;;6.00;;
12906;SDS011;6521;50.498;8.474;2022-12-08T10:20:18;8.53;;;6.30;;
12906;SDS011;6521;50.498;8.474;2022-12-08T10:22:54;9.00;;;5.90;;
12906;SDS011;6521;50.498;8.474;2022-12-08T10:25:44;21.07;;;6.10;;
12906;SDS011;6521;50.498;8.474;2022-12-08T10:28:16;24.17;;;6.73;;
12906;SDS011;6521;50.498;8.474;2022-12-08T10:30:47;17.60;;;5.90;;
12906;SDS011;6521;50.498;8.474;2022-12-08T10:33:18;11.40;;;5.90;;
12906;SDS011;6521;50.498;8.474;2022-12-08T10:35:54;8.00;;;5.07;;
12906;SDS011;6521;50.498;8.474;2022-12-08T10:43:40;10.90;;;5.83;;
12906;SDS011;6521;50.498;8.474;2022-12-08T10:46:23;9.77;;;5.90;;
12906;SDS011;6521;50.498;8.474;2022-12-08T10:54:03;11.60;;;5.80;;
12906;SDS011;6521;50.498;8.474;2022-12-08T10:56:35;8.67;;;5.67;;
12906;SDS011;6521;50.498;8.474;2022-12-08T10:59:13;8.60;;;5.77;;
12906;SDS011;6521;50.498;8.474;2022-12-08T11:01:47;8.67;;;5.73;;
12906;SDS011;6521;50.498;8.474;2022-12-08T11:04:38;7.97;;;5.47;;
12906;SDS011;6521;50.498;8.474;2022-12-08T11:07:08;9.27;;;5.30;;
12906;SDS011;6521;50.498;8.474;2022-12-08T11:09:45;7.40;;;5.97;;
12906;SDS011;6521;50.498;8.474;2022-12-08T11:12:19;9.63;;;5.57;;
12906;SDS011;6521;50.498;8.474;2022-12-08T11:15:00;9.23;;;6.27;;
12906;SDS011;6521;50.498;8.474;2022-12-08T11:17:36;10.63;;;6.07;;
12906;SDS011;6521;50.498;8.474;2022-12-08T11:22:45;9.80;;;6.50;;
12906;SDS011;6521;50.498;8.474;2022-12-08T11:25:26;8.47;;;5.67;;
12906;SDS011;6521;50.498;8.474;2022-12-08T11:27:58;7.23;;;5.40;;
12906;SDS011;6521;50.498;8.474;2022-12-08T11:30:38;11.00;;;5.53;;
12906;SDS011;6521;50.498;8.474;2022-12-08T11:36:08;7.63;;;5.17;;
12906;SDS011;6521;50.498;8.474;2022-12-08T11:38:43;7.07;;;5.50;;
12906;SDS011;6521;50.498;8.474;2022-12-08T11:41:21;7.83;;;5.73;;
12906;SDS011;6521;50.498;8.474;2022-12-08T11:44:09;8.10;;;5.77;;
12906;SDS011;6521;50.498;8.474;2022-12-08T11:46:45;7.27;;;5.27;;
12906;SDS011;6521;50.498;8.474;2022-12-08T11:49:22;9.67;;;5.77;;
12906;SDS011;6521;50.498;8.474;2022-12-08T11:54:46;11.03;;;5.50;;
12906;SDS011;6521;50.498;8.474;2022-12-08T11:57:22;9.23;;;5.33;;
12906;SDS011;6521;50.498;8.474;2022-12-08T11:59:56;9.30;;;5.73;;
12906;SDS011;6521;50.498;8.474;2022-12-08T12:02:28;7.93;;;6.10;;
12906;SDS011;6521;50.498;8.474;2022-12-08T12:05:06;8.40;;;6.03;;
12906;SDS011;6521;50.498;8.474;2022-12-08T12:13:35;6.90;;;5.10;;
12906;SDS011;6521;50.498;8.474;2022-12-08T12:16:22;8.30;;;4.73;;
12906;SDS011;6521;50.498;8.474;2022-12-08T12:18:58;9.07;;;5.40;;
12906;SDS011;6521;50.498;8.474;2022-12-08T12:21:42;7.87;;;5.33;;
12906;SDS011;6521;50.498;8.474;2022-12-08T12:24:18;10.73;;;5.00;;
12906;SDS011;6521;50.498;8.474;2022-12-08T12:26:57;7.50;;;5.97;;
12906;SDS011;6521;50.498;8.474;2022-12-08T12:29:29;8.80;;;5.70;;
12906;SDS011;6521;50.498;8.474;2022-12-08T12:32:06;7.43;;;5.67;;
12906;SDS011;6521;50.498;8.474;2022-12-08T12:34:45;9.30;;;5.03;;
12906;SDS011;6521;50.498;8.474;2022-12-08T12:37:21;7.40;;;5.30;;
12906;SDS011;6521;50.498;8.474;2022-12-08T12:39:56;7.90;;;5.50;;
12906;SDS011;6521;50.498;8.474;2022-12-08T12:42:40;9.80;;;5.30;;
12906;SDS011;6521;50.498;8.474;2022-12-08T12:50:57;13.23;;;5.93;;
12906;SDS011;6521;50.498;8.474;2022-12-08T12:56:00;6.03;;;4.83;;
12906;SDS011;6521;50.498;8.474;2022-12-08T12:58:34;7.87;;;5.43;;
12906;SDS011;6521;50.498;8.474;2022-12-08T13:06:36;7.50;;;5.43;;
12906;SDS011;6521;50.498;8.474;2022-12-08T13:09:20;9.03;;;5.30;;
12906;SDS011;6521;50.498;8.474;2022-12-08T13:11:54;7.13;;;4.97;;
12906;SDS011;6521;50.498;8.474;2022-12-08T13:14:30;8.63;;;4.57;;
12906;SDS011;6521;50.498;8.474;2022-12-08T13:17:04;6.53;;;4.10;;
12906;SDS011;6521;50.498;8.474;2022-12-08T13:19:40;10.50;;;4.73;;
12906;SDS011;6521;50.498;8.474;2022-12-08T13:26:07;7.47;;;5.47;;
12906;SDS011;6521;50.498;8.474;2022-12-08T13:28:18;8.67;;;4.90;;
12906;SDS011;6521;50.498;8.474;2022-12-08T13:30:58;7.63;;;5.47;;
12906;SDS011;6521;50.498;8.474;2022-12-08T13:38:33;10.63;;;5.60;;
12906;SDS011;6521;50.498;8.474;2022-12-08T13:41:08;9.67;;;5.13;;
12906;SDS011;6521;50.498;8.474;2022-12-08T13:44:03;7.33;;;5.00;;
12906;SDS011;6521;50.498;8.474;2022-12-08T13:46:39;7.33;;;4.80;;
12906;SDS011;6521;50.498;8.474;2022-12-08T13:49:14;7.83;;;4.33;;
12906;SDS011;6521;50.498;8.474;2022-12-08T13:51:49;5.40;;;3.13;;
12906;SDS011;6521;50.498;8.474;2022-12-08T13:54:24;4.13;;;2.77;;
12906;SDS011;6521;50.498;8.474;2022-12-08T13:56:55;6.60;;;3.63;;
12906;SDS011;6521;50.498;8.474;2022-12-08T13:59:28;6.30;;;3.87;;
12906;SDS011;6521;50.498;8.474;2022-12-08T14:02:04;5.73;;;3.17;;
12906;SDS011;6521;50.498;8.474;2022-12-08T14:04:47;4.77;;;3.87;;
12906;SDS011;6521;50.498;8.474;2022-12-08T14:07:18;4.33;;;3.90;;
12906;SDS011;6521;50.498;8.474;2022-12-08T14:09:49;5.63;;;4.00;;
12906;SDS011;6521;50.498;8.474;2022-12-08T14:12:24;9.53;;;5.30;;
12906;SDS011;6521;50.498;8.474;2022-12-08T14:15:00;8.50;;;5.00;;
12906;SDS011;6521;50.498;8.474;2022-12-08T14:17:33;7.43;;;4.53;;
12906;SDS011;6521;50.498;8.474;2022-12-08T14:22:41;6.83;;;5.83;;
12906;SDS011;6521;50.498;8.474;2022-12-08T14:25:14;7.70;;;5.93;;
12906;SDS011;6521;50.498;8.474;2022-12-08T14:27:46;16.93;;;7.20;;
12906;SDS011;6521;50.498;8.474;2022-12-08T14:30:19;11.17;;;7.00;;
12906;SDS011;6521;50.498;8.474;2022-12-08T14:32:57;8.97;;;6.87;;
12906;SDS011;6521;50.498;8.474;2022-12-08T14:35:36;8.37;;;6.40;;
12906;SDS011;6521;50.498;8.474;2022-12-08T14:38:12;10.83;;;5.80;;
12906;SDS011;6521;50.498;8.474;2022-12-08T14:40:48;11.67;;;7.07;;
12906;SDS011;6521;50.498;8.474;2022-12-08T14:43:30;13.33;;;6.87;;
12906;SDS011;6521;50.498;8.474;2022-12-08T14:46:02;8.43;;;6.40;;
12906;SDS011;6521;50.498;8.474;2022-12-08T14:48:49;7.10;;;5.87;;
12906;SDS011;6521;50.498;8.474;2022-12-08T14:51:27;9.10;;;6.50;;
12906;SDS011;6521;50.498;8.474;2022-12-08T14:59:12;11.83;;;6.67;;
12906;SDS011;6521;50.498;8.474;2022-12-08T15:01:44;9.27;;;5.70;;
12906;SDS011;6521;50.498;8.474;2022-12-08T15:04:22;8.60;;;5.87;;
12906;SDS011;6521;50.498;8.474;2022-12-08T15:06:57;8.77;;;6.27;;
12906;SDS011;6521;50.498;8.474;2022-12-08T15:12:05;7.93;;;6.10;;
12906;SDS011;6521;50.498;8.474;2022-12-08T15:14:52;9.03;;;6.57;;
12906;SDS011;6521;50.498;8.474;2022-12-08T15:23:20;10.20;;;6.30;;
12906;SDS011;6521;50.498;8.474;2022-12-08T15:25:54;7.40;;;5.47;;
12906;SDS011;6521;50.498;8.474;2022-12-08T15:28:26;5.90;;;4.93;;
12906;SDS011;6521;50.498;8.474;2022-12-08T15:30:58;9.00;;;5.50;;
12906;SDS011;6521;50.498;8.474;2022-12-08T15:33:30;6.83;;;5.00;;
12906;SDS011;6521;50.498;8.474;2022-12-08T15:36:00;7.83;;;5.67;;
12906;SDS011;6521;50.498;8.474;2022-12-08T15:38:31;7.20;;;4.73;;
12906;SDS011;6521;50.498;8.474;2022-12-08T15:41:03;7.80;;;5.77;;
12906;SDS011;6521;50.498;8.474;2022-12-08T15:43:34;7.87;;;6.30;;
12906;SDS011;6521;50.498;8.474;2022-12-08T15:46:05;7.40;;;6.50;;
12906;SDS011;6521;50.498;8.474;2022-12-08T15:48:36;7.27;;;5.10;;
12906;SDS011;6521;50.498;8.474;2022-12-08T15:51:07;7.57;;;5.80;;
12906;SDS011;6521;50.498;8.474;2022-12-08T15:53:38;10.67;;;6.70;;
12906;SDS011;6521;50.498;8.474;2022-12-08T15:56:10;7.53;;;6.40;;
12906;SDS011;6521;50.498;8.474;2022-12-08T15:58:44;8.30;;;5.97;;
12906;SDS011;6521;50.498;8.474;2022-12-08T16:01:14;7.53;;;5.80;;
12906;SDS011;6521;50.498;8.474;2022-12-08T16:03:46;12.20;;;7.63;;
12906;SDS011;6521;50.498;8.474;2022-12-08T16:06:18;14.07;;;10.33;;
12906;SDS011;6521;50.498;8.474;2022-12-08T16:08:50;132.93;;;62.60;;
12906;SDS011;6521;50.498;8.474;2022-12-08T16:11:21;73.70;;;39.23;;
12906;SDS011;6521;50.498;8.474;2022-12-08T16:14:10;16.53;;;10.27;;
12906;SDS011;6521;50.498;8.474;2022-12-08T16:16:41;9.67;;;6.83;;
12906;SDS011;6521;50.498;8.474;2022-12-08T16:19:12;10.53;;;7.63;;
12906;SDS011;6521;50.498;8.474;2022-12-08T16:21:43;15.37;;;8.67;;
12906;SDS011;6521;50.498;8.474;2022-12-08T16:24:14;4.47;;;3.67;;
12906;SDS011;6521;50.498;8.474;2022-12-08T16:26:45;4.43;;;3.53;;
12906;SDS011;6521;50.498;8.474;2022-12-08T16:29:17;4.13;;;3.43;;
12906;SDS011;6521;50.498;8.474;2022-12-08T16:31:49;3.83;;;2.70;;
12906;SDS011;6521;50.498;8.474;2022-12-08T16:34:21;4.17;;;2.70;;
12906;SDS011;6521;50.498;8.474;2022-12-08T16:36:51;2.97;;;2.37;;
12906;SDS011;6521;50.498;8.474;2022-12-08T16:39:22;4.00;;;2.53;;
12906;SDS011;6521;50.498;8.474;2022-12-08T16:41:53;3.73;;;2.10;;
12906;SDS011;6521;50.498;8.474;2022-12-08T16:44:42;3.70;;;2.20;;
12906;SDS011;6521;50.498;8.474;2022-12-08T16:47:13;3.60;;;2.60;;
12906;SDS011;6521;50.498;8.474;2022-12-08T16:49:44;1.97;;;1.83;;
12906;SDS011;6521;50.498;8.474;2022-12-08T16:52:15;4.33;;;2.63;;
12906;SDS011;6521;50.498;8.474;2022-12-08T16:54:46;3.07;;;2.00;;
12906;SDS011;6521;50.498;8.474;2022-12-08T16:57:17;3.37;;;2.53;;
12906;SDS011;6521;50.498;8.474;2022-12-08T16:59:48;4.70;;;3.30;;
12906;SDS011;6521;50.498;8.474;2022-12-08T17:02:19;6.20;;;3.57;;
12906;SDS011;6521;50.498;8.474;2022-12-08T17:04:50;4.77;;;3.43;;
12906;SDS011;6521;50.498;8.474;2022-12-08T17:07:21;4.83;;;3.70;;
12906;SDS011;6521;50.498;8.474;2022-12-08T17:09:51;6.83;;;4.13;;
12906;SDS011;6521;50.498;8.474;2022-12-08T17:12:22;6.33;;;4.30;;